createdAt,value
2018-02-10T00:00:10.896Z,4.00
2018-02-10T00:01:10.867Z,4.00
2018-02-10T00:02:10.845Z,4.00
2018-02-10T00:03:10.816Z,4.00
2018-02-10T00:04:10.795Z,4.00
2018-02-10T00:05:10.771Z,4.00
2018-02-10T00:06:10.739Z,4.00
2018-02-10T00:07:10.726Z,4.00
2018-02-10T00:08:10.691Z,4.00
2018-02-10T00:09:10.750Z,4.00
2018-02-10T00:10:10.640Z,4.00
2018-02-10T00:11:10.608Z,4.00
2018-02-10T00:12:10.591Z,4.00
2018-02-10T00:13:10.556Z,4.00
2018-02-10T00:14:10.529Z,4.00
2018-02-10T00:15:10.508Z,4.00
2018-02-10T00:16:10.476Z,4.00
2018-02-10T00:17:10.467Z,4.00
2018-02-10T00:18:10.436Z,4.00
2018-02-10T00:19:10.398Z,4.00
2018-02-10T00:20:10.370Z,4.00
2018-02-10T00:21:10.346Z,4.00
2018-02-10T00:22:10.321Z,4.00
2018-02-10T00:23:10.295Z,4.00
2018-02-10T00:24:10.271Z,4.00
2018-02-10T00:25:10.242Z,4.00
2018-02-10T00:26:10.219Z,4.00
2018-02-10T00:27:10.196Z,4.00
2018-02-10T00:28:10.164Z,4.00
2018-02-10T00:29:10.147Z,4.00
2018-02-10T00:30:10.115Z,4.00
2018-02-10T00:31:10.090Z,4.00
2018-02-10T00:32:10.065Z,4.00
2018-02-10T00:33:10.043Z,4.00
2018-02-10T00:34:10.029Z,4.00
2018-02-10T00:35:09.990Z,4.00
2018-02-10T00:36:09.963Z,4.00
2018-02-10T00:37:09.934Z,4.00
2018-02-10T00:38:09.915Z,4.00
2018-02-10T00:39:09.887Z,4.00
2018-02-10T00:40:09.858Z,4.00
2018-02-10T00:41:09.839Z,4.00
2018-02-10T00:42:09.805Z,4.00
2018-02-10T00:43:09.778Z,4.00
2018-02-10T00:44:09.752Z,4.00
2018-02-10T00:45:09.750Z,4.00
2018-02-10T00:46:09.707Z,4.00
2018-02-10T00:47:09.689Z,4.00
2018-02-10T00:48:09.662Z,4.00
2018-02-10T00:49:09.638Z,4.00
2018-02-10T00:50:09.626Z,4.00
2018-02-10T00:51:09.612Z,4.00
2018-02-10T00:52:09.548Z,4.00
2018-02-10T00:53:09.522Z,4.00
2018-02-10T00:54:09.497Z,4.00
2018-02-10T00:55:09.471Z,4.00
2018-02-10T00:56:09.449Z,4.00
2018-02-10T00:57:09.420Z,4.00
2018-02-10T00:58:09.393Z,4.00
2018-02-10T00:59:09.423Z,4.00
2018-02-10T01:00:09.347Z,4.00
2018-02-10T01:01:09.319Z,4.00
2018-02-10T01:02:09.290Z,4.00
2018-02-10T01:03:09.270Z,4.00
2018-02-10T01:04:09.239Z,4.00
2018-02-10T01:05:09.223Z,4.00
2018-02-10T01:06:09.245Z,4.00
2018-02-10T01:07:09.163Z,4.00
2018-02-10T01:08:09.137Z,4.00
2018-02-10T01:09:09.112Z,4.00
2018-02-10T01:10:09.092Z,4.00
2018-02-10T01:11:09.060Z,4.00
2018-02-10T01:12:09.038Z,4.00
2018-02-10T01:13:09.053Z,4.00
2018-02-10T01:14:08.984Z,4.00
2018-02-10T01:15:08.959Z,4.00
2018-02-10T01:16:08.943Z,4.00
2018-02-10T01:17:08.908Z,4.00
2018-02-10T01:18:08.883Z,4.00
2018-02-10T01:19:08.857Z,4.00
2018-02-10T01:20:08.830Z,4.00
2018-02-10T01:21:08.814Z,4.00
2018-02-10T01:22:08.780Z,4.00
2018-02-10T01:23:08.755Z,4.00
2018-02-10T01:24:08.743Z,4.00
2018-02-10T01:25:08.702Z,4.00
2018-02-10T01:26:08.679Z,4.00
2018-02-10T01:27:08.756Z,4.00
2018-02-10T01:28:08.628Z,4.00
2018-02-10T01:29:08.599Z,4.00
2018-02-10T01:30:08.575Z,4.00
2018-02-10T01:31:08.549Z,4.00
2018-02-10T01:32:08.521Z,4.00
2018-02-10T01:33:08.497Z,4.00
2018-02-10T01:34:08.472Z,4.00
2018-02-10T01:35:08.447Z,4.00
2018-02-10T01:36:08.420Z,4.00
2018-02-10T01:37:08.396Z,4.00
2018-02-10T01:38:08.379Z,4.00
2018-02-10T01:39:08.353Z,4.00
2018-02-10T01:40:08.318Z,4.00
2018-02-10T01:41:08.314Z,4.00
2018-02-10T01:42:08.268Z,4.00
2018-02-10T01:43:08.239Z,4.00
2018-02-10T01:44:08.214Z,4.00
2018-02-10T01:45:08.189Z,4.00
2018-02-10T01:46:08.165Z,4.00
2018-02-10T01:47:08.154Z,4.00
2018-02-10T01:48:08.114Z,4.00
2018-02-10T01:49:08.211Z,4.00
2018-02-10T01:50:08.072Z,4.00
2018-02-10T01:51:08.036Z,4.00
2018-02-10T01:52:08.080Z,4.00
2018-02-10T01:53:07.989Z,4.00
2018-02-10T01:54:07.957Z,4.00
2018-02-10T01:55:07.952Z,4.00
2018-02-10T01:56:07.907Z,4.00
2018-02-10T01:57:07.916Z,4.00
2018-02-10T01:58:07.857Z,4.00
2018-02-10T01:59:07.833Z,4.00
2018-02-10T02:00:07.804Z,4.00
2018-02-10T02:01:07.785Z,4.00
2018-02-10T02:02:07.757Z,4.00
2018-02-10T02:03:07.726Z,4.00
2018-02-10T02:04:07.702Z,4.00
2018-02-10T02:05:07.675Z,4.00
2018-02-10T02:06:07.691Z,4.00
2018-02-10T02:07:07.624Z,4.00
2018-02-10T02:08:07.602Z,4.00
2018-02-10T02:09:07.581Z,4.00
2018-02-10T02:10:07.548Z,4.00
2018-02-10T02:11:07.526Z,4.00
2018-02-10T02:12:07.497Z,4.00
2018-02-10T02:13:07.472Z,4.00
2018-02-10T02:14:07.445Z,4.00
2018-02-10T02:15:07.421Z,4.00
2018-02-10T02:16:07.393Z,4.00
2018-02-10T02:17:07.364Z,4.00
2018-02-10T02:18:07.340Z,4.00
2018-02-10T02:19:07.315Z,4.00
2018-02-10T02:20:07.313Z,4.00
2018-02-10T02:21:07.279Z,4.00
2018-02-10T02:22:07.250Z,4.00
2018-02-10T02:23:07.212Z,4.00
2018-02-10T02:24:07.185Z,4.00
2018-02-10T02:25:07.161Z,4.00
2018-02-10T02:26:07.135Z,4.00
2018-02-10T02:27:07.108Z,4.00
2018-02-10T02:28:07.081Z,4.00
2018-02-10T02:29:07.067Z,4.00
2018-02-10T02:30:07.030Z,4.00
2018-02-10T02:31:07.095Z,4.00
2018-02-10T02:32:06.978Z,4.00
2018-02-10T02:33:06.957Z,4.00
2018-02-10T02:34:06.933Z,4.00
2018-02-10T02:35:06.899Z,4.00
2018-02-10T02:36:06.878Z,4.00
2018-02-10T02:37:06.850Z,4.00
2018-02-10T02:38:06.831Z,4.00
2018-02-10T02:39:06.798Z,4.00
2018-02-10T02:40:06.771Z,4.00
2018-02-10T02:41:06.747Z,4.00
2018-02-10T02:42:06.719Z,4.00
2018-02-10T02:43:06.691Z,4.00
2018-02-10T02:44:06.669Z,4.00
2018-02-10T02:45:06.644Z,4.00
2018-02-10T02:46:06.616Z,4.00
2018-02-10T02:47:06.589Z,4.00
2018-02-10T02:48:06.565Z,4.00
2018-02-10T02:49:06.538Z,4.00
2018-02-10T02:50:06.510Z,4.00
2018-02-10T02:51:06.493Z,4.00
2018-02-10T02:52:06.457Z,4.00
2018-02-10T02:53:06.438Z,4.00
2018-02-10T02:54:06.408Z,4.00
2018-02-10T02:55:06.382Z,4.00
2018-02-10T02:56:06.357Z,4.00
2018-02-10T02:57:06.328Z,4.00
2018-02-10T02:58:06.306Z,4.00
2018-02-10T02:59:06.280Z,4.00
2018-02-10T03:00:06.254Z,4.00
2018-02-10T03:01:06.224Z,4.00
2018-02-10T03:02:06.199Z,4.00
2018-02-10T03:03:06.174Z,4.00
2018-02-10T03:04:06.150Z,4.00
2018-02-10T03:05:06.124Z,4.00
2018-02-10T03:06:06.099Z,4.00
2018-02-10T03:07:06.120Z,4.00
2018-02-10T03:08:06.046Z,4.00
2018-02-10T03:09:06.027Z,4.00
2018-02-10T03:10:06.003Z,4.00
2018-02-10T03:11:05.971Z,4.00
2018-02-10T03:12:05.944Z,4.00
2018-02-10T03:13:05.918Z,4.00
2018-02-10T03:14:05.893Z,4.00
2018-02-10T03:15:05.864Z,4.00
2018-02-10T03:16:05.845Z,4.00
2018-02-10T03:17:05.814Z,4.00
2018-02-10T03:18:05.791Z,4.00
2018-02-10T03:19:05.760Z,4.00
2018-02-10T03:20:05.736Z,4.00
2018-02-10T03:21:05.710Z,4.00
2018-02-10T03:22:05.683Z,4.00
2018-02-10T03:23:05.660Z,4.00
2018-02-10T03:24:05.629Z,4.00
2018-02-10T03:25:05.606Z,4.00
2018-02-10T03:26:05.580Z,4.00
2018-02-10T03:27:05.553Z,4.00
2018-02-10T03:28:05.530Z,4.00
2018-02-10T03:29:05.504Z,4.00
2018-02-10T03:30:05.479Z,4.00
2018-02-10T03:31:05.449Z,4.00
2018-02-10T03:32:05.466Z,4.00
2018-02-10T03:33:05.399Z,4.00
2018-02-10T03:34:05.381Z,4.00
2018-02-10T03:35:05.355Z,4.00
2018-02-10T03:36:05.320Z,4.00
2018-02-10T03:37:05.293Z,4.00
2018-02-10T03:38:05.268Z,4.00
2018-02-10T03:39:05.241Z,4.00
2018-02-10T03:40:05.220Z,4.00
2018-02-10T03:41:05.192Z,4.00
2018-02-10T03:42:05.168Z,4.00
2018-02-10T03:43:05.141Z,4.00
2018-02-10T03:44:05.110Z,4.00
2018-02-10T03:45:05.088Z,4.00
2018-02-10T03:46:05.168Z,4.00
2018-02-10T03:47:05.037Z,4.00
2018-02-10T03:48:05.010Z,4.00
2018-02-10T03:49:04.988Z,4.00
2018-02-10T03:50:04.958Z,4.00
2018-02-10T03:51:04.933Z,4.00
2018-02-10T03:52:04.909Z,4.00
2018-02-10T03:53:04.884Z,4.00
2018-02-10T03:54:04.857Z,4.00
2018-02-10T03:55:04.830Z,4.00
2018-02-10T03:56:04.806Z,4.00
2018-02-10T03:57:04.792Z,4.00
2018-02-10T03:58:04.755Z,4.00
2018-02-10T03:59:04.725Z,4.00
2018-02-10T04:00:04.701Z,4.00
2018-02-10T04:01:04.678Z,4.00
2018-02-10T04:02:04.651Z,4.00
2018-02-10T04:03:04.625Z,4.00
2018-02-10T04:04:04.599Z,4.00
2018-02-10T04:05:04.574Z,4.00
2018-02-10T04:06:04.548Z,4.00
2018-02-10T04:07:04.522Z,4.00
2018-02-10T04:08:04.549Z,4.00
2018-02-10T04:09:04.469Z,4.00
2018-02-10T04:10:04.447Z,4.00
2018-02-10T04:11:04.460Z,4.00
2018-02-10T04:12:04.393Z,4.00
2018-02-10T04:13:04.369Z,4.00
2018-02-10T04:14:04.350Z,4.00
2018-02-10T04:15:04.317Z,4.00
2018-02-10T04:16:04.293Z,4.00
2018-02-10T04:17:04.266Z,4.00
2018-02-10T04:18:04.248Z,4.00
2018-02-10T04:19:04.213Z,4.00
2018-02-10T04:20:04.188Z,4.00
2018-02-10T04:21:04.166Z,4.00
2018-02-10T04:22:04.137Z,4.00
2018-02-10T04:23:04.113Z,4.00
2018-02-10T04:24:04.089Z,4.00
2018-02-10T04:25:04.063Z,4.00
2018-02-10T04:26:04.038Z,4.00
2018-02-10T04:27:04.014Z,4.00
2018-02-10T04:28:03.989Z,4.00
2018-02-10T04:29:03.961Z,4.00
2018-02-10T04:30:03.939Z,4.00
2018-02-10T04:31:03.913Z,4.00
2018-02-10T04:32:03.902Z,4.00
2018-02-10T04:33:03.861Z,4.00
2018-02-10T04:34:03.843Z,4.00
2018-02-10T04:35:03.812Z,4.00
2018-02-10T04:36:03.784Z,4.00
2018-02-10T04:37:03.758Z,4.00
2018-02-10T04:38:03.733Z,4.00
2018-02-10T04:39:03.711Z,4.00
2018-02-10T04:40:03.685Z,4.00
2018-02-10T04:41:03.661Z,4.00
2018-02-10T04:42:03.637Z,4.00
2018-02-10T04:43:03.608Z,4.00
2018-02-10T04:44:03.763Z,4.00
2018-02-10T04:45:03.563Z,4.00
2018-02-10T04:46:03.532Z,4.00
2018-02-10T04:47:03.515Z,4.00
2018-02-10T04:48:03.482Z,4.00
2018-02-10T04:49:03.459Z,4.00
2018-02-10T04:50:03.439Z,4.00
2018-02-10T04:51:03.406Z,4.00
2018-02-10T04:52:03.383Z,4.00
2018-02-10T04:53:03.359Z,4.00
2018-02-10T04:54:03.333Z,4.00
2018-02-10T04:55:03.308Z,4.00
2018-02-10T04:56:03.286Z,4.00
2018-02-10T04:57:03.260Z,4.00
2018-02-10T04:58:03.231Z,4.00
2018-02-10T04:59:03.208Z,4.00
2018-02-10T05:00:03.183Z,4.00
2018-02-10T05:01:03.157Z,4.00
2018-02-10T05:02:03.130Z,4.00
2018-02-10T05:03:03.112Z,4.00
2018-02-10T05:04:03.084Z,4.00
2018-02-10T05:05:03.060Z,4.00
2018-02-10T05:06:03.033Z,4.00
2018-02-10T05:07:03.006Z,4.00
2018-02-10T05:08:02.983Z,4.00
2018-02-10T05:09:02.964Z,4.00
2018-02-10T05:10:02.937Z,4.00
2018-02-10T05:11:02.907Z,4.00
2018-02-10T05:12:02.998Z,4.00
2018-02-10T05:13:02.868Z,4.00
2018-02-10T05:14:02.837Z,4.00
2018-02-10T05:15:02.809Z,4.00
2018-02-10T05:16:02.787Z,4.00
2018-02-10T05:17:02.758Z,4.00
2018-02-10T05:18:02.737Z,4.00
2018-02-10T05:19:02.709Z,4.00
2018-02-10T05:20:02.692Z,4.00
2018-02-10T05:21:02.660Z,4.00
2018-02-10T05:22:02.640Z,4.00
2018-02-10T05:23:02.634Z,4.00
2018-02-10T05:24:02.591Z,4.00
2018-02-10T05:25:02.560Z,4.00
2018-02-10T05:26:02.606Z,4.00
2018-02-10T05:27:02.510Z,4.00
2018-02-10T05:28:02.485Z,4.00
2018-02-10T05:29:02.460Z,4.00
2018-02-10T05:30:02.435Z,4.00
2018-02-10T05:31:02.410Z,4.00
2018-02-10T05:32:02.384Z,4.00
2018-02-10T05:33:02.358Z,4.00
2018-02-10T05:34:02.335Z,4.00
2018-02-10T05:35:02.312Z,4.00
2018-02-10T05:36:02.283Z,4.00
2018-02-10T05:37:02.260Z,4.00
2018-02-10T05:38:02.245Z,4.00
2018-02-10T05:39:02.218Z,4.00
2018-02-10T05:40:02.193Z,4.00
2018-02-10T05:41:02.164Z,4.00
2018-02-10T05:42:02.135Z,4.00
2018-02-10T05:43:02.112Z,4.00
2018-02-10T05:44:02.084Z,4.00
2018-02-10T05:45:02.094Z,4.00
2018-02-10T05:46:02.037Z,4.00
2018-02-10T05:47:02.008Z,4.00
2018-02-10T05:48:01.990Z,4.00
2018-02-10T05:49:01.962Z,4.00
2018-02-10T05:50:01.935Z,4.00
2018-02-10T05:51:01.985Z,4.00
2018-02-10T05:52:01.881Z,4.00
2018-02-10T05:53:01.856Z,4.00
2018-02-10T05:54:01.837Z,4.00
2018-02-10T05:55:01.806Z,4.00
2018-02-10T05:56:01.788Z,4.00
2018-02-10T05:57:01.761Z,4.00
2018-02-10T05:58:01.732Z,4.00
2018-02-10T05:59:01.712Z,4.00
2018-02-10T06:00:01.681Z,4.00
2018-02-10T06:01:01.655Z,4.00
2018-02-10T06:02:01.634Z,4.00
2018-02-10T06:03:01.605Z,4.00
2018-02-10T06:04:01.582Z,4.00
2018-02-10T06:05:01.556Z,4.00
2018-02-10T06:06:01.530Z,4.00
2018-02-10T06:07:01.502Z,4.00
2018-02-10T06:08:01.495Z,4.00
2018-02-10T06:09:01.451Z,4.00
2018-02-10T06:10:01.429Z,4.00
2018-02-10T06:11:01.400Z,4.00
2018-02-10T06:12:01.379Z,4.00
2018-02-10T06:13:01.351Z,4.00
2018-02-10T06:14:01.326Z,4.00
2018-02-10T06:15:01.298Z,4.00
2018-02-10T06:16:01.281Z,4.00
2018-02-10T06:17:01.257Z,4.00
2018-02-10T06:18:01.224Z,4.00
2018-02-10T06:19:01.197Z,4.00
2018-02-10T06:20:01.172Z,4.00
2018-02-10T06:21:01.147Z,4.00
2018-02-10T06:22:01.120Z,4.00
2018-02-10T06:23:01.097Z,4.00
2018-02-10T06:24:01.176Z,4.00
2018-02-10T06:25:01.055Z,0.00
2018-02-10T06:26:01.019Z,4.00
2018-02-10T06:27:01.079Z,4.00
2018-02-10T06:28:00.970Z,4.00
2018-02-10T06:29:00.947Z,4.00
2018-02-10T06:30:00.921Z,4.00
2018-02-10T06:31:00.895Z,8.00
2018-02-10T06:32:00.871Z,4.00
2018-02-10T06:33:00.846Z,8.00
2018-02-10T06:34:00.835Z,8.00
2018-02-10T06:35:00.792Z,8.00
2018-02-10T06:36:00.766Z,12.00
2018-02-10T06:37:00.741Z,8.00
2018-02-10T06:38:00.718Z,8.00
2018-02-10T06:39:00.695Z,12.00
2018-02-10T06:40:00.665Z,16.00
2018-02-10T06:41:00.642Z,16.00
2018-02-10T06:42:00.615Z,20.00
2018-02-10T06:43:00.598Z,20.00
2018-02-10T06:44:00.565Z,20.00
2018-02-10T06:45:00.540Z,24.00
2018-02-10T06:46:00.679Z,24.00
2018-02-10T06:47:00.489Z,20.00
2018-02-10T06:48:00.470Z,24.00
2018-02-10T06:49:00.552Z,24.00
2018-02-10T06:50:00.442Z,28.00
2018-02-10T06:51:00.390Z,36.00
2018-02-10T06:52:00.370Z,44.00
2018-02-10T06:53:00.339Z,48.00
2018-02-10T06:54:00.315Z,56.00
2018-02-10T06:55:00.296Z,60.00
2018-02-10T06:56:00.262Z,64.00
2018-02-10T06:57:00.238Z,68.00
2018-02-10T06:58:00.230Z,68.00
2018-02-10T06:59:00.188Z,80.00
2018-02-10T07:00:00.173Z,88.00
2018-02-10T07:01:00.137Z,92.00
2018-02-10T07:02:00.128Z,96.00
2018-02-10T07:03:00.096Z,100.00
2018-02-10T07:04:00.066Z,116.00
2018-02-10T07:05:00.038Z,136.00
2018-02-10T07:06:00.034Z,136.00
2018-02-10T07:06:59.987Z,140.00
2018-02-10T07:07:59.961Z,148.00
2018-02-10T07:08:59.935Z,152.00
2018-02-10T07:09:59.915Z,160.00
2018-02-10T07:10:59.886Z,176.00
2018-02-10T07:11:59.861Z,172.00
2018-02-10T07:12:59.836Z,188.00
2018-02-10T07:13:59.810Z,200.00
2018-02-10T07:14:59.785Z,200.00
2018-02-10T07:15:59.760Z,216.00
2018-02-10T07:16:59.745Z,228.00
2018-02-10T07:17:59.719Z,248.00
2018-02-10T07:18:59.793Z,256.00
2018-02-10T07:19:59.666Z,264.00
2018-02-10T07:20:59.635Z,280.00
2018-02-10T07:21:59.684Z,284.00
2018-02-10T07:22:59.584Z,272.00
2018-02-10T07:23:59.568Z,260.00
2018-02-10T07:24:59.590Z,280.00
2018-02-10T07:25:59.510Z,280.00
2018-02-10T07:26:59.483Z,304.00
2018-02-10T07:27:59.460Z,316.00
2018-02-10T07:28:59.446Z,316.00
2018-02-10T07:29:59.410Z,308.00
2018-02-10T07:30:59.387Z,304.00
2018-02-10T07:31:59.361Z,324.00
2018-02-10T07:32:59.338Z,336.00
2018-02-10T07:33:59.314Z,316.00
2018-02-10T07:34:59.307Z,332.00
2018-02-10T07:35:59.263Z,344.00
2018-02-10T07:36:59.249Z,380.00
2018-02-10T07:37:59.212Z,392.00
2018-02-10T07:38:59.197Z,392.00
2018-02-10T07:39:59.163Z,408.00
2018-02-10T07:40:59.138Z,408.00
2018-02-10T07:41:59.112Z,432.00
2018-02-10T07:42:59.088Z,404.00
2018-02-10T07:43:59.115Z,396.00
2018-02-10T07:44:59.039Z,412.00
2018-02-10T07:45:59.011Z,416.00
2018-02-10T07:46:59.160Z,448.00
2018-02-10T07:47:58.969Z,456.00
2018-02-10T07:48:58.937Z,480.00
2018-02-10T07:49:58.916Z,480.00
2018-02-10T07:50:58.887Z,484.00
2018-02-10T07:51:58.879Z,492.00
2018-02-10T07:52:58.888Z,508.00
2018-02-10T07:53:58.815Z,512.00
2018-02-10T07:54:58.955Z,508.00
2018-02-10T07:55:58.760Z,524.00
2018-02-10T07:56:58.737Z,516.00
2018-02-10T07:57:58.817Z,532.00
2018-02-10T07:58:58.684Z,536.00
2018-02-10T07:59:58.680Z,528.00
2018-02-10T08:00:58.689Z,540.00
2018-02-10T08:01:58.614Z,552.00
2018-02-10T08:02:58.596Z,568.00
2018-02-10T08:03:58.563Z,584.00
2018-02-10T08:04:58.536Z,628.00
2018-02-10T08:05:58.514Z,648.00
2018-02-10T08:06:58.487Z,656.00
2018-02-10T08:07:58.463Z,656.00
2018-02-10T08:08:58.442Z,672.00
2018-02-10T08:09:58.412Z,664.00
2018-02-10T08:10:58.396Z,648.00
2018-02-10T08:11:58.366Z,692.00
2018-02-10T08:12:58.341Z,740.00
2018-02-10T08:13:58.321Z,792.00
2018-02-10T08:14:58.287Z,808.00
2018-02-10T08:15:58.277Z,820.00
2018-02-10T08:16:58.237Z,828.00
2018-02-10T08:17:58.213Z,820.00
2018-02-10T08:18:58.187Z,856.00
2018-02-10T08:19:58.175Z,880.00
2018-02-10T08:20:58.136Z,916.00
2018-02-10T08:21:58.115Z,1016.00
2018-02-10T08:22:58.106Z,1044.00
2018-02-10T08:23:58.064Z,1100.00
2018-02-10T08:24:58.039Z,1144.00
2018-02-10T08:25:58.066Z,1160.00
2018-02-10T08:26:58.000Z,1188.00
2018-02-10T08:27:57.970Z,1352.00
2018-02-10T08:28:57.996Z,1388.00
2018-02-10T08:29:57.913Z,1412.00
2018-02-10T08:30:57.890Z,1476.00
2018-02-10T08:31:57.866Z,1484.00
2018-02-10T08:32:57.839Z,1504.00
2018-02-10T08:33:57.818Z,1584.00
2018-02-10T08:34:57.790Z,1628.00
2018-02-10T08:35:57.763Z,1716.00
2018-02-10T08:36:57.811Z,1648.00
2018-02-10T08:37:57.714Z,1680.00
2018-02-10T08:38:57.689Z,1680.00
2018-02-10T08:39:57.669Z,1548.00
2018-02-10T08:40:57.642Z,1412.00
2018-02-10T08:41:57.620Z,1464.00
2018-02-10T08:42:57.591Z,1516.00
2018-02-10T08:43:57.570Z,1512.00
2018-02-10T08:44:57.545Z,1636.00
2018-02-10T08:45:57.519Z,1604.00
2018-02-10T08:46:57.490Z,1512.00
2018-02-10T08:47:57.468Z,1632.00
2018-02-10T08:48:57.452Z,1628.00
2018-02-10T08:49:57.421Z,1584.00
2018-02-10T08:50:57.397Z,1748.00
2018-02-10T08:51:57.369Z,1788.00
2018-02-10T08:52:57.347Z,1912.00
2018-02-10T08:53:57.323Z,1724.00
2018-02-10T08:54:57.296Z,1656.00
2018-02-10T08:55:57.290Z,1792.00
2018-02-10T08:56:57.255Z,1796.00
2018-02-10T08:57:57.235Z,1980.00
2018-02-10T08:58:57.273Z,1840.00
2018-02-10T08:59:57.187Z,1900.00
2018-02-10T09:00:57.150Z,1936.00
2018-02-10T09:01:57.190Z,1760.00
2018-02-10T09:02:57.102Z,1788.00
2018-02-10T09:03:57.087Z,1808.00
2018-02-10T09:04:57.055Z,1928.00
2018-02-10T09:05:57.033Z,1896.00
2018-02-10T09:06:57.004Z,1916.00
2018-02-10T09:07:56.989Z,1904.00
2018-02-10T09:08:56.958Z,1956.00
2018-02-10T09:09:56.986Z,1988.00
2018-02-10T09:10:56.907Z,1936.00
2018-02-10T09:11:56.896Z,1988.00
2018-02-10T09:12:56.857Z,2156.00
2018-02-10T09:13:56.838Z,2264.00
2018-02-10T09:14:56.816Z,2224.00
2018-02-10T09:15:56.790Z,2188.00
2018-02-10T09:16:56.767Z,2288.00
2018-02-10T09:17:56.748Z,2372.00
2018-02-10T09:18:56.726Z,2404.00
2018-02-10T09:19:56.688Z,2552.00
2018-02-10T09:20:56.667Z,2588.00
2018-02-10T09:21:56.644Z,2732.00
2018-02-10T09:22:56.616Z,2732.00
2018-02-10T09:23:56.592Z,2796.00
2018-02-10T09:24:56.572Z,2776.00
2018-02-10T09:25:56.574Z,2892.00
2018-02-10T09:26:56.522Z,2848.00
2018-02-10T09:27:56.494Z,2700.00
2018-02-10T09:28:56.476Z,2500.00
2018-02-10T09:29:56.449Z,2792.00
2018-02-10T09:30:56.425Z,2752.00
2018-02-10T09:31:56.402Z,2876.00
2018-02-10T09:32:56.387Z,3208.00
2018-02-10T09:33:56.353Z,2932.00
2018-02-10T09:34:56.343Z,2876.00
2018-02-10T09:35:56.301Z,2932.00
2018-02-10T09:36:56.284Z,3180.00
2018-02-10T09:37:56.354Z,3380.00
2018-02-10T09:38:56.238Z,3380.00
2018-02-10T09:39:56.297Z,3860.00
2018-02-10T09:40:56.184Z,4084.00
2018-02-10T09:41:56.161Z,3968.00
2018-02-10T09:42:56.140Z,3868.00
2018-02-10T09:43:56.127Z,3980.00
2018-02-10T09:44:56.091Z,3976.00
2018-02-10T09:45:56.065Z,4428.00
2018-02-10T09:46:56.040Z,4100.00
2018-02-10T09:47:56.037Z,4200.00
2018-02-10T09:48:55.993Z,3928.00
2018-02-10T09:49:55.978Z,3924.00
2018-02-10T09:50:55.946Z,4148.00
2018-02-10T09:51:55.929Z,4180.00
2018-02-10T09:52:55.900Z,4504.00
2018-02-10T09:53:55.876Z,4052.00
2018-02-10T09:54:55.849Z,3968.00
2018-02-10T09:55:55.830Z,4244.00
2018-02-10T09:56:55.804Z,4336.00
2018-02-10T09:57:55.782Z,4480.00
2018-02-10T09:58:55.752Z,3760.00
2018-02-10T09:59:55.790Z,3496.00
2018-02-10T10:00:55.709Z,3268.00
2018-02-10T10:01:55.693Z,3152.00
2018-02-10T10:02:55.709Z,3080.00
2018-02-10T10:03:55.646Z,3128.00
2018-02-10T10:04:55.637Z,3524.00
2018-02-10T10:05:55.594Z,3232.00
2018-02-10T10:06:55.570Z,3336.00
2018-02-10T10:07:55.556Z,3068.00
2018-02-10T10:08:55.520Z,3016.00
2018-02-10T10:09:55.497Z,2964.00
2018-02-10T10:10:55.474Z,3336.00
2018-02-10T10:11:55.450Z,3156.00
2018-02-10T10:12:55.458Z,3236.00
2018-02-10T10:13:55.425Z,3260.00
2018-02-10T10:14:55.378Z,2968.00
2018-02-10T10:15:55.366Z,3112.00
2018-02-10T10:16:55.333Z,3048.00
2018-02-10T10:17:55.309Z,2828.00
2018-02-10T10:18:55.286Z,2736.00
2018-02-10T10:19:55.276Z,2524.00
2018-02-10T10:20:55.240Z,2464.00
2018-02-10T10:21:55.234Z,2372.00
2018-02-10T10:22:55.191Z,2432.00
2018-02-10T10:23:55.171Z,2376.00
2018-02-10T10:24:55.164Z,2188.00
2018-02-10T10:25:55.120Z,2152.00
2018-02-10T10:26:55.098Z,2272.00
2018-02-10T10:27:55.076Z,2252.00
2018-02-10T10:28:55.050Z,2516.00
2018-02-10T10:29:55.029Z,2408.00
2018-02-10T10:30:55.006Z,2244.00
2018-02-10T10:31:54.979Z,2252.00
2018-02-10T10:32:54.969Z,2264.00
2018-02-10T10:33:54.937Z,2164.00
2018-02-10T10:34:54.906Z,2016.00
2018-02-10T10:35:54.902Z,2124.00
2018-02-10T10:36:54.858Z,2048.00
2018-02-10T10:37:54.835Z,2040.00
2018-02-10T10:38:54.816Z,2288.00
2018-02-10T10:39:54.787Z,2328.00
2018-02-10T10:40:54.765Z,2456.00
2018-02-10T10:41:54.742Z,2308.00
2018-02-10T10:42:54.718Z,2472.00
2018-02-10T10:43:54.694Z,2440.00
2018-02-10T10:44:54.672Z,2396.00
2018-02-10T10:45:54.650Z,2844.00
2018-02-10T10:46:54.625Z,2432.00
2018-02-10T10:47:54.606Z,2412.00
2018-02-10T10:48:54.577Z,2552.00
2018-02-10T10:49:54.554Z,2380.00
2018-02-10T10:50:54.532Z,2256.00
2018-02-10T10:51:54.503Z,2464.00
2018-02-10T10:52:54.483Z,2732.00
2018-02-10T10:53:54.465Z,2528.00
2018-02-10T10:54:54.452Z,2360.00
2018-02-10T10:55:54.417Z,2436.00
2018-02-10T10:56:54.393Z,2456.00
2018-02-10T10:57:54.375Z,2340.00
2018-02-10T10:58:54.342Z,2264.00
2018-02-10T10:59:54.316Z,2232.00
2018-02-10T11:00:54.302Z,2556.00
2018-02-10T11:01:54.283Z,2496.00
2018-02-10T11:02:54.246Z,2432.00
2018-02-10T11:03:54.222Z,2608.00
2018-02-10T11:04:54.200Z,2416.00
2018-02-10T11:05:54.257Z,2620.00
2018-02-10T11:06:54.151Z,2548.00
2018-02-10T11:07:54.136Z,2608.00
2018-02-10T11:08:54.110Z,2704.00
2018-02-10T11:09:54.088Z,2644.00
2018-02-10T11:10:54.084Z,2640.00
2018-02-10T11:11:54.032Z,2528.00
2018-02-10T11:12:54.010Z,2632.00
2018-02-10T11:13:53.999Z,2592.00
2018-02-10T11:14:53.961Z,2836.00
2018-02-10T11:15:53.940Z,2976.00
2018-02-10T11:16:53.931Z,2800.00
2018-02-10T11:17:53.891Z,2604.00
2018-02-10T11:18:53.869Z,2644.00
2018-02-10T11:19:53.843Z,2640.00
2018-02-10T11:20:53.827Z,2712.00
2018-02-10T11:21:53.851Z,2800.00
2018-02-10T11:22:53.772Z,3024.00
2018-02-10T11:23:53.754Z,3172.00
2018-02-10T11:24:53.729Z,3664.00
2018-02-10T11:25:53.712Z,3700.00
2018-02-10T11:26:53.681Z,3176.00
2018-02-10T11:27:53.657Z,3232.00
2018-02-10T11:28:53.631Z,2988.00
2018-02-10T11:29:53.625Z,3144.00
2018-02-10T11:30:53.586Z,3152.00
2018-02-10T11:31:53.561Z,3144.00
2018-02-10T11:32:53.557Z,2772.00
2018-02-10T11:33:53.517Z,2772.00
2018-02-10T11:34:53.490Z,2560.00
2018-02-10T11:35:53.472Z,2680.00
2018-02-10T11:36:53.453Z,2576.00
2018-02-10T11:37:53.426Z,2360.00
2018-02-10T11:38:53.400Z,2280.00
2018-02-10T11:39:53.376Z,3268.00
2018-02-10T11:40:53.386Z,3360.00
2018-02-10T11:41:53.331Z,4360.00
2018-02-10T11:42:53.305Z,3096.00
2018-02-10T11:43:53.296Z,2560.00
2018-02-10T11:44:53.269Z,2488.00
2018-02-10T11:45:53.254Z,2468.00
2018-02-10T11:46:53.215Z,3268.00
2018-02-10T11:47:53.187Z,4068.00
2018-02-10T11:48:53.168Z,3660.00
2018-02-10T11:49:53.152Z,3468.00
2018-02-10T11:50:53.117Z,3704.00
2018-02-10T11:51:53.110Z,3640.00
2018-02-10T11:52:53.075Z,3396.00
2018-02-10T11:53:53.048Z,3680.00
2018-02-10T11:54:53.027Z,3452.00
2018-02-10T11:55:53.029Z,3132.00
2018-02-10T11:56:52.982Z,3332.00
2018-02-10T11:57:52.955Z,2828.00
2018-02-10T11:58:52.935Z,3256.00
2018-02-10T11:59:52.912Z,3224.00
2018-02-10T12:00:52.890Z,3004.00
2018-02-10T12:01:52.865Z,3000.00
2018-02-10T12:02:52.843Z,3168.00
2018-02-10T12:03:52.818Z,2816.00
2018-02-10T12:04:52.802Z,2856.00
2018-02-10T12:05:52.773Z,2960.00
2018-02-10T12:06:52.763Z,3720.00
2018-02-10T12:07:52.725Z,3356.00
2018-02-10T12:08:52.703Z,3540.00
2018-02-10T12:09:52.681Z,3808.00
2018-02-10T12:10:52.665Z,3388.00
2018-02-10T12:11:52.634Z,3940.00
2018-02-10T12:12:52.612Z,5784.00
2018-02-10T12:13:52.587Z,3516.00
2018-02-10T12:14:52.563Z,3328.00
2018-02-10T12:15:52.544Z,3988.00
2018-02-10T12:16:52.532Z,4168.00
2018-02-10T12:17:52.495Z,3988.00
2018-02-10T12:18:52.471Z,3560.00
2018-02-10T12:19:52.451Z,3356.00
2018-02-10T12:20:52.432Z,3968.00
2018-02-10T12:21:52.408Z,4064.00
2018-02-10T12:22:52.381Z,3748.00
2018-02-10T12:23:52.368Z,3484.00
2018-02-10T12:24:52.343Z,3344.00
2018-02-10T12:25:52.315Z,3544.00
2018-02-10T12:26:52.290Z,3064.00
2018-02-10T12:27:52.277Z,3044.00
2018-02-10T12:28:52.244Z,3004.00
2018-02-10T12:29:52.275Z,2864.00
2018-02-10T12:30:52.210Z,2776.00
2018-02-10T12:31:52.182Z,2500.00
2018-02-10T12:32:52.163Z,2336.00
2018-02-10T12:33:52.129Z,2508.00
2018-02-10T12:34:52.108Z,2316.00
2018-02-10T12:35:52.105Z,2140.00
2018-02-10T12:36:52.060Z,1904.00
2018-02-10T12:37:52.050Z,1996.00
2018-02-10T12:38:52.020Z,2100.00
2018-02-10T12:39:51.996Z,2176.00
2018-02-10T12:40:51.972Z,2340.00
2018-02-10T12:41:51.948Z,2512.00
2018-02-10T12:42:51.924Z,2376.00
2018-02-10T12:43:51.903Z,2540.00
2018-02-10T12:44:51.883Z,2552.00